Time;durP1;ratioP1;P1;durP2;ratioP2;P2;SDS_P1;SDS_P2;PMS_P1;PMS_P2;Temp;Humidity;BMP_temperature;BMP_pressure;BME280_temperature;BME280_humidity;BME280_pressure;Samples;Min_cycle;Max_cycle;Signal;HPM_P1;HPM_P2
2022/04/06 00:00:37;;;;;;;1.67;0.30;;;17.00;58.50;;;;;;4980251;28;20540;-14
2022/04/06 00:03:02;;;;;;;0.45;0.40;;;16.90;58.50;;;;;;4992201;28;20047;-13
2022/04/06 00:05:28;;;;;;;0.30;0.30;;;16.90;58.60;;;;;;4997132;28;20034;-15
2022/04/06 00:07:53;;;;;;;0.63;0.30;;;16.90;58.60;;;;;;4995784;28;20097;-13
2022/04/06 00:10:19;;;;;;;0.40;0.30;;;16.90;58.60;;;;;;4992118;28;20103;-13
2022/04/06 00:12:44;;;;;;;0.30;0.30;;;16.90;58.80;;;;;;4985655;28;20046;-13
2022/04/06 00:15:10;;;;;;;1.45;0.30;;;16.80;58.60;;;;;;4990804;28;20031;-13
2022/04/06 00:17:36;;;;;;;0.40;0.30;;;16.80;58.80;;;;;;4987607;28;20511;-16
2022/04/06 00:20:03;;;;;;;0.47;0.40;;;16.80;58.80;;;;;;4995843;28;20038;-14
2022/04/06 00:22:28;;;;;;;0.52;0.40;;;16.80;58.80;;;;;;4995558;28;20514;-14
2022/04/06 00:24:54;;;;;;;0.80;0.50;;;16.80;58.80;;;;;;4981437;28;20049;-13
2022/04/06 00:27:20;;;;;;;0.85;0.40;;;16.80;58.90;;;;;;4996492;28;20104;-14
2022/04/06 00:29:45;;;;;;;0.25;0.20;;;16.80;58.90;;;;;;4980519;28;20047;-14
2022/04/06 00:32:11;;;;;;;0.30;0.20;;;16.80;58.90;;;;;;4979460;28;20046;-14
2022/04/06 00:37:21;;;;;;;;;;;16.70;58.90;;;;;;4988891;28;20046;-13
2022/04/06 00:39:47;;;;;;;0.43;0.40;;;16.70;59.00;;;;;;4999086;28;20374;-13
2022/04/06 00:42:12;;;;;;;0.45;0.40;;;16.70;59.10;;;;;;4998907;28;20034;-14
2022/04/06 00:44:39;;;;;;;1.27;0.30;;;16.80;59.00;;;;;;4997963;28;20069;-14
2022/04/06 00:47:05;;;;;;;0.30;0.30;;;16.70;59.00;;;;;;4996420;28;20121;-15
2022/04/06 00:49:31;;;;;;;0.57;0.30;;;16.70;59.00;;;;;;4997011;28;20070;-14
2022/04/06 00:51:56;;;;;;;0.28;0.28;;;16.70;59.10;;;;;;4980470;28;20066;-13
2022/04/06 00:54:22;;;;;;;0.40;0.40;;;16.70;59.10;;;;;;4991353;28;20069;-14
2022/04/06 00:56:48;;;;;;;0.50;0.30;;;16.70;59.10;;;;;;4998735;28;20046;-13
2022/04/06 00:59:17;;;;;;;0.40;0.40;;;16.70;59.00;;;;;;4987486;28;20050;-13
2022/04/06 01:01:46;;;;;;;0.52;0.40;;;16.80;59.10;;;;;;4989598;28;20046;-13
2022/04/06 01:04:13;;;;;;;0.30;0.30;;;16.70;59.10;;;;;;4998101;28;20093;-15
2022/04/06 01:06:39;;;;;;;0.30;0.30;;;16.70;59.10;;;;;;4986592;28;20736;-16
2022/04/06 01:09:04;;;;;;;1.33;0.40;;;16.70;59.20;;;;;;4992975;28;20054;-20
2022/04/06 01:11:30;;;;;;;0.30;0.30;;;16.70;59.20;;;;;;4991339;28;20042;-14
2022/04/06 01:13:56;;;;;;;0.75;0.28;;;16.70;59.20;;;;;;4993579;28;20085;-14
2022/04/06 01:16:21;;;;;;;0.40;0.40;;;16.70;59.20;;;;;;4988667;28;20121;-12
2022/04/06 01:18:47;;;;;;;0.45;0.40;;;16.70;59.20;;;;;;4992873;28;20050;-14
2022/04/06 01:21:13;;;;;;;0.73;0.40;;;16.70;59.20;;;;;;4984931;28;20043;-15
2022/04/06 01:23:42;;;;;;;0.52;0.47;;;16.70;59.20;;;;;;4995817;28;20113;-14
2022/04/06 01:26:10;;;;;;;0.50;0.47;;;16.70;59.30;;;;;;4994058;28;20376;-14
2022/04/06 01:28:37;;;;;;;0.22;0.20;;;16.70;59.30;;;;;;4985933;28;20078;-13
2022/04/06 01:31:03;;;;;;;0.40;0.40;;;16.70;59.40;;;;;;4989316;28;20125;-14
2022/04/06 01:33:28;;;;;;;1.17;0.32;;;16.60;59.30;;;;;;4985303;28;20069;-13
2022/04/06 01:35:55;;;;;;;0.30;0.30;;;16.70;59.30;;;;;;4986969;28;20042;-13
2022/04/06 01:38:21;;;;;;;0.88;0.30;;;16.70;59.20;;;;;;4986624;28;20133;-14
2022/04/06 01:40:47;;;;;;;0.73;0.57;;;16.70;59.30;;;;;;4987226;28;20074;-12
2022/04/06 01:43:12;;;;;;;0.40;0.32;;;16.70;59.30;;;;;;4985825;28;20035;-14
2022/04/06 01:45:38;;;;;;;0.30;0.30;;;16.70;59.20;;;;;;4987009;28;20038;-13
2022/04/06 01:48:04;;;;;;;0.63;0.20;;;16.70;59.10;;;;;;4987392;28;20045;-15
2022/04/06 01:53:14;;;;;;;0.20;0.20;;;16.70;59.20;;;;;;4988014;28;20042;-13
2022/04/06 01:55:39;;;;;;;0.60;0.30;;;16.70;59.10;;;;;;4988897;28;20042;-13
2022/04/06 01:58:05;;;;;;;0.50;0.30;;;16.60;59.20;;;;;;4986404;28;20034;-13
2022/04/06 02:00:31;;;;;;;0.30;0.30;;;16.70;59.20;;;;;;4988457;28;20065;-12
2022/04/06 02:02:57;;;;;;;0.30;0.28;;;16.70;59.20;;;;;;4986790;28;20041;-13
2022/04/06 02:05:22;;;;;;;3.92;0.93;;;16.60;59.10;;;;;;4985970;28;20125;-12
2022/04/06 02:07:48;;;;;;;0.20;0.20;;;16.70;59.10;;;;;;4985831;28;20038;-14
2022/04/06 02:10:14;;;;;;;0.40;0.40;;;16.70;59.10;;;;;;4987801;28;20053;-13
2022/04/06 02:12:40;;;;;;;0.60;0.45;;;16.60;59.10;;;;;;4985102;28;20053;-13
2022/04/06 02:15:10;;;;;;;0.25;0.20;;;16.70;59.10;;;;;;4986634;28;20125;-13
2022/04/06 02:17:36;;;;;;;0.98;0.30;;;16.60;59.10;;;;;;4985622;28;20481;-12
2022/04/06 02:20:01;;;;;;;0.60;0.60;;;16.60;59.10;;;;;;4985346;28;20071;-12
2022/04/06 02:22:27;;;;;;;0.75;0.40;;;16.70;59.00;;;;;;4985692;28;20054;-12
2022/04/06 02:24:52;;;;;;;0.20;0.20;;;16.70;59.10;;;;;;4977350;28;20492;-12
2022/04/06 02:27:18;;;;;;;0.57;0.30;;;16.70;59.10;;;;;;4984790;28;20466;-13
2022/04/06 02:29:44;;;;;;;0.52;0.40;;;16.70;59.00;;;;;;4994953;28;20047;-13
2022/04/06 02:32:10;;;;;;;0.63;0.28;;;16.70;59.10;;;;;;4991022;28;20096;-13
2022/04/06 02:34:36;;;;;;;0.20;0.20;;;16.70;59.20;;;;;;4996212;28;20054;-13
2022/04/06 02:37:02;;;;;;;0.40;0.40;;;16.60;59.10;;;;;;4995552;28;20050;-13
2022/04/06 02:39:27;;;;;;;0.20;0.20;;;16.60;59.20;;;;;;4983391;28;20054;-12
2022/04/06 02:41:53;;;;;;;0.30;0.20;;;16.60;59.10;;;;;;4996174;28;20074;-13
2022/04/06 02:44:19;;;;;;;0.55;0.20;;;16.60;59.20;;;;;;4996628;28;20039;-12
2022/04/06 02:46:45;;;;;;;0.30;0.30;;;16.70;59.10;;;;;;4995935;28;20653;-12
2022/04/06 02:49:11;;;;;;;0.30;0.30;;;16.70;59.80;;;;;;4978419;28;20628;-14
2022/04/06 02:51:36;;;;;;;0.25;0.20;;;16.70;59.20;;;;;;4979431;28;20066;-12
2022/04/06 02:54:02;;;;;;;0.45;0.40;;;16.70;59.00;;;;;;4986058;28;20492;-12
2022/04/06 02:56:28;;;;;;;0.20;0.20;;;16.60;59.00;;;;;;4995719;28;20172;-13
2022/04/06 02:58:53;;;;;;;0.22;0.22;;;16.60;59.00;;;;;;4987846;28;20051;-13
2022/04/06 03:01:20;;;;;;;0.65;0.40;;;16.60;59.10;;;;;;4976746;28;20034;-12
2022/04/06 03:03:45;;;;;;;0.22;0.20;;;16.60;59.00;;;;;;4976425;28;20047;-13
2022/04/06 03:06:11;;;;;;;0.10;0.10;;;16.70;59.00;;;;;;4994229;28;20534;-12
2022/04/06 03:08:36;;;;;;;0.20;0.20;;;16.70;59.00;;;;;;4994925;28;20449;-13
2022/04/06 03:11:02;;;;;;;0.28;0.25;;;16.70;59.00;;;;;;4996271;28;20096;-12
2022/04/06 03:13:28;;;;;;;0.30;0.30;;;16.70;59.00;;;;;;4994650;28;20070;-12
2022/04/06 03:15:53;;;;;;;0.85;0.40;;;16.70;59.60;;;;;;4996127;28;20459;-12
2022/04/06 03:18:20;;;;;;;0.20;0.20;;;16.70;59.00;;;;;;4996133;28;20065;-12
2022/04/06 03:20:46;;;;;;;0.30;0.20;;;16.60;58.90;;;;;;4994863;28;20409;-12
2022/04/06 03:23:11;;;;;;;0.40;0.40;;;16.70;59.00;;;;;;4995825;28;20046;-12
2022/04/06 03:25:37;;;;;;;0.30;0.20;;;16.70;58.80;;;;;;4994868;28;20061;-13
2022/04/06 03:28:03;;;;;;;0.40;0.40;;;16.70;58.80;;;;;;4996092;28;20050;-13
2022/04/06 03:30:28;;;;;;;0.20;0.15;;;16.70;58.80;;;;;;4995339;28;20045;-12
2022/04/06 03:32:54;;;;;;;0.30;0.20;;;16.70;58.90;;;;;;4995448;28;20133;-12
2022/04/06 03:35:19;;;;;;;0.30;0.30;;;16.60;58.80;;;;;;4995970;28;20046;-13
2022/04/06 03:37:45;;;;;;;0.22;0.22;;;16.70;58.80;;;;;;4995321;28;20093;-12
2022/04/06 03:40:12;;;;;;;0.55;0.30;;;16.70;58.80;;;;;;4995997;28;20035;-13
2022/04/06 03:42:38;;;;;;;0.20;0.20;;;16.70;58.80;;;;;;4994534;28;20133;-13
2022/04/06 03:45:04;;;;;;;0.40;0.38;;;16.70;59.50;;;;;;4993102;28;20053;-13
2022/04/06 03:47:30;;;;;;;0.50;0.50;;;16.60;58.90;;;;;;4982488;28;20047;-13
2022/04/06 03:49:56;;;;;;;0.40;0.20;;;16.70;58.90;;;;;;4995901;28;20088;-13
2022/04/06 03:52:22;;;;;;;0.40;0.30;;;16.70;58.80;;;;;;4995651;28;20082;-12
2022/04/06 03:54:47;;;;;;;0.30;0.30;;;16.70;59.00;;;;;;4994499;28;20062;-13
2022/04/06 03:57:13;;;;;;;0.40;0.20;;;16.60;58.90;;;;;;4995824;28;20046;-14
2022/04/06 03:59:39;;;;;;;0.40;0.20;;;16.60;58.90;;;;;;4994872;28;20443;-12
2022/04/06 04:02:05;;;;;;;0.30;0.30;;;16.70;58.90;;;;;;4994691;28;20062;-12
2022/04/06 04:04:30;;;;;;;0.30;0.30;;;16.70;59.00;;;;;;4995165;28;20044;-12
2022/04/06 04:06:56;;;;;;;0.20;0.20;;;16.60;59.00;;;;;;4995600;28;20046;-12
2022/04/06 04:09:21;;;;;;;0.50;0.30;;;16.60;59.10;;;;;;4995769;28;20042;-13
2022/04/06 04:11:47;;;;;;;0.30;0.30;;;16.60;59.10;;;;;;4988286;28;20054;-13
2022/04/06 04:14:14;;;;;;;0.20;0.20;;;16.60;59.10;;;;;;4995502;28;20129;-12
2022/04/06 04:16:39;;;;;;;0.35;0.20;;;16.60;59.00;;;;;;4994137;28;20153;-13
2022/04/06 04:19:05;;;;;;;0.10;0.10;;;16.60;59.10;;;;;;4995426;28;20129;-12
2022/04/06 04:21:34;;;;;;;0.20;0.20;;;16.60;59.00;;;;;;4982604;28;20070;-13
2022/04/06 04:24:04;;;;;;;0.22;0.22;;;16.60;59.00;;;;;;4984084;28;20089;-13
2022/04/06 04:26:29;;;;;;;0.13;0.13;;;16.60;59.00;;;;;;4992910;28;20109;-13
2022/04/06 04:28:55;;;;;;;0.20;0.20;;;16.60;58.90;;;;;;4978478;28;20038;-12
2022/04/06 04:31:21;;;;;;;0.50;0.28;;;16.60;58.80;;;;;;4979512;28;20047;-12
2022/04/06 04:33:46;;;;;;;0.13;0.13;;;16.70;59.00;;;;;;4979158;28;20046;-12
2022/04/06 04:36:12;;;;;;;0.25;0.15;;;16.60;58.90;;;;;;4987362;28;20050;-14
2022/04/06 04:38:37;;;;;;;0.22;0.20;;;16.60;59.00;;;;;;4998375;28;20066;-14
2022/04/06 04:41:06;;;;;;;0.20;0.10;;;16.60;58.90;;;;;;4998299;28;20061;-13
2022/04/06 04:43:32;;;;;;;0.10;0.10;;;16.60;59.00;;;;;;4998343;28;20039;-12
2022/04/06 04:45:58;;;;;;;0.30;0.20;;;16.60;58.90;;;;;;4998775;28;20042;-13
2022/04/06 04:48:23;;;;;;;0.30;0.20;;;16.60;59.00;;;;;;4998726;28;20181;-12
2022/04/06 04:50:49;;;;;;;0.20;0.20;;;16.60;59.00;;;;;;4998160;28;20572;-12
2022/04/06 04:53:14;;;;;;;0.25;0.22;;;16.60;59.00;;;;;;4998722;28;20157;-13
2022/04/06 04:55:41;;;;;;;0.20;0.20;;;16.60;59.60;;;;;;4997520;28;20058;-13
2022/04/06 04:58:07;;;;;;;0.20;0.20;;;16.60;59.00;;;;;;4997422;28;20053;-12
2022/04/06 05:00:32;;;;;;;0.20;0.20;;;16.50;59.00;;;;;;4997921;28;20491;-12
2022/04/06 05:02:58;;;;;;;0.10;0.10;;;16.50;59.10;;;;;;4982080;28;20051;-12
2022/04/06 05:05:24;;;;;;;0.20;0.20;;;16.50;59.00;;;;;;4979116;28;20125;-13
2022/04/06 05:07:50;;;;;;;0.50;0.35;;;16.60;59.00;;;;;;4981982;28;20042;-13
2022/04/06 05:10:15;;;;;;;0.20;0.20;;;16.50;59.00;;;;;;4998506;28;20038;-13
2022/04/06 05:12:41;;;;;;;0.20;0.20;;;16.60;59.60;;;;;;4997851;28;20073;-13
2022/04/06 05:15:07;;;;;;;0.20;0.20;;;16.60;58.90;;;;;;4993816;28;20039;-14
2022/04/06 05:17:36;;;;;;;0.20;0.20;;;16.60;59.00;;;;;;4978124;28;20058;-14
2022/04/06 05:20:02;;;;;;;0.32;0.10;;;16.50;59.10;;;;;;4978787;28;20043;-13
2022/04/06 05:22:27;;;;;;;0.25;0.20;;;16.50;59.70;;;;;;4986144;28;20054;-12
2022/04/06 05:24:54;;;;;;;0.20;0.20;;;16.50;59.20;;;;;;4997621;28;20136;-12
2022/04/06 05:27:19;;;;;;;0.30;0.10;;;16.50;59.10;;;;;;4998180;28;20060;-12
2022/04/06 05:29:46;;;;;;;0.38;0.20;;;16.50;59.20;;;;;;4997462;28;20042;-14
2022/04/06 05:32:12;;;;;;;0.43;0.20;;;16.50;59.10;;;;;;4997318;28;20050;-13
2022/04/06 05:34:37;;;;;;;0.30;0.20;;;16.50;59.10;;;;;;4996754;28;20057;-12
2022/04/06 05:37:03;;;;;;;0.50;0.28;;;16.50;59.20;;;;;;4645063;28;9999919;-12
2022/04/06 05:39:29;;;;;;;0.25;0.25;;;16.50;59.20;;;;;;5004383;28;20439;-12
2022/04/06 05:41:54;;;;;;;0.30;0.30;;;16.50;59.20;;;;;;4996302;28;20603;-13
2022/04/06 05:44:20;;;;;;;0.40;0.22;;;16.50;59.20;;;;;;5002626;28;20038;-13
2022/04/06 05:46:46;;;;;;;0.20;0.17;;;16.40;59.10;;;;;;5003426;28;20835;-13
2022/04/06 05:49:11;;;;;;;0.30;0.20;;;16.40;59.20;;;;;;4993471;28;20132;-12
2022/04/06 05:51:37;;;;;;;0.35;0.20;;;16.40;59.20;;;;;;4993526;28;20528;-12
2022/04/06 05:54:03;;;;;;;0.10;0.10;;;16.50;59.30;;;;;;4992753;28;20046;-12
2022/04/06 05:56:29;;;;;;;0.22;0.20;;;16.50;59.20;;;;;;4989231;28;20057;-12
2022/04/06 05:58:55;;;;;;;0.30;0.20;;;16.50;59.40;;;;;;5006030;28;20046;-15
2022/04/06 06:01:20;;;;;;;0.20;0.10;;;16.50;59.40;;;;;;4991954;28;20101;-12
2022/04/06 06:03:46;;;;;;;0.20;0.20;;;16.40;59.50;;;;;;4991535;28;20197;-13
2022/04/06 06:06:11;;;;;;;0.17;0.17;;;16.40;59.50;;;;;;4993887;28;20044;-12
2022/04/06 06:08:37;;;;;;;0.20;0.10;;;16.40;59.50;;;;;;4991634;28;20431;-12
2022/04/06 06:11:03;;;;;;;0.40;0.20;;;16.50;59.60;;;;;;5000626;28;20077;-13
2022/04/06 06:13:30;;;;;;;0.30;0.30;;;16.40;59.40;;;;;;4993247;28;20042;-12
2022/04/06 06:15:55;;;;;;;0.22;0.13;;;16.50;59.50;;;;;;5005874;28;20046;-14
2022/04/06 06:18:22;;;;;;;0.20;0.15;;;16.50;59.50;;;;;;4989222;28;20149;-13
2022/04/06 06:20:48;;;;;;;0.68;0.40;;;16.50;59.50;;;;;;4998996;28;20419;-13
2022/04/06 06:23:13;;;;;;;0.20;0.10;;;16.50;59.50;;;;;;4993624;28;20065;-13
2022/04/06 06:25:39;;;;;;;0.70;0.25;;;16.60;59.60;;;;;;4992201;28;20042;-13
2022/04/06 06:28:05;;;;;;;0.10;0.10;;;16.50;59.90;;;;;;4995418;28;20049;-12
2022/04/06 06:30:30;;;;;;;0.43;0.20;;;16.50;59.90;;;;;;4994395;28;20738;-13
2022/04/06 06:32:56;;;;;;;0.75;0.20;;;16.50;59.80;;;;;;4991422;28;20477;-12
2022/04/06 06:35:23;;;;;;;0.20;0.10;;;16.50;59.90;;;;;;4990009;28;20046;-12
2022/04/06 06:37:50;;;;;;;0.13;0.13;;;16.50;60.00;;;;;;4983722;28;20038;-12
2022/04/06 06:40:17;;;;;;;0.57;0.20;;;16.50;60.10;;;;;;4977248;28;20097;-13
2022/04/06 06:42:42;;;;;;;0.63;0.20;;;16.50;60.10;;;;;;4995892;28;20065;-13
2022/04/06 06:45:09;;;;;;;1.45;0.20;;;16.50;60.00;;;;;;4993226;28;20050;-12
2022/04/06 06:47:34;;;;;;;0.20;0.20;;;16.50;60.10;;;;;;4995174;28;20046;-12
2022/04/06 06:50:00;;;;;;;0.25;0.20;;;16.50;60.10;;;;;;4991555;28;20548;-14
2022/04/06 06:52:25;;;;;;;0.10;0.10;;;16.50;60.20;;;;;;4980525;28;20065;-12
2022/04/06 06:54:51;;;;;;;0.63;0.30;;;16.50;60.30;;;;;;4995568;28;20141;-16
2022/04/06 06:57:17;;;;;;;0.10;0.10;;;16.50;60.10;;;;;;4982911;28;20643;-15
2022/04/06 06:59:42;;;;;;;1.00;0.43;;;16.60;60.20;;;;;;4980280;28;20058;-15
2022/04/06 07:02:09;;;;;;;0.28;0.28;;;16.60;59.90;;;;;;4981841;28;20819;-16
2022/04/06 07:04:35;;;;;;;0.22;0.20;;;16.60;59.70;;;;;;4981027;28;20057;-16
2022/04/06 07:07:00;;;;;;;0.30;0.20;;;16.70;59.80;;;;;;4979785;28;20052;-16
2022/04/06 07:09:26;;;;;;;0.22;0.20;;;16.70;59.60;;;;;;4979879;28;20174;-15
2022/04/06 07:11:52;;;;;;;0.35;0.22;;;16.70;59.80;;;;;;4981075;28;20042;-15
2022/04/06 07:14:18;;;;;;;0.20;0.20;;;16.60;59.80;;;;;;4979798;28;20803;-15
2022/04/06 07:16:44;;;;;;;0.20;0.20;;;16.70;59.60;;;;;;4978763;28;20057;-15
2022/04/06 07:19:10;;;;;;;0.30;0.20;;;16.80;59.60;;;;;;4981317;28;20054;-15
2022/04/06 07:21:35;;;;;;;0.25;0.20;;;16.70;60.30;;;;;;4981235;28;20047;-15
2022/04/06 07:24:03;;;;;;;0.50;0.20;;;16.70;60.00;;;;;;4977688;28;20053;-15
2022/04/06 07:26:29;;;;;;;0.32;0.17;;;16.70;59.70;;;;;;4980867;28;20046;-15
2022/04/06 07:28:54;;;;;;;0.28;0.10;;;16.80;59.50;;;;;;4978619;28;20047;-15
2022/04/06 07:31:20;;;;;;;0.40;0.30;;;16.80;59.40;;;;;;4981320;28;20053;-15
2022/04/06 07:33:46;;;;;;;0.20;0.20;;;16.80;59.40;;;;;;4979518;28;20146;-15
2022/04/06 07:36:13;;;;;;;0.10;0.10;;;16.90;59.20;;;;;;4980556;28;20046;-16
2022/04/06 07:38:39;;;;;;;0.20;0.20;;;16.90;59.30;;;;;;4979902;28;20058;-18
2022/04/06 07:41:04;;;;;;;1.10;0.30;;;16.90;59.30;;;;;;4981171;28;20057;-15
2022/04/06 07:43:30;;;;;;;0.10;0.10;;;16.90;59.10;;;;;;4979618;28;20058;-14
2022/04/06 07:45:56;;;;;;;0.25;0.25;;;16.90;59.10;;;;;;4980444;28;20061;-15
2022/04/06 07:48:22;;;;;;;0.20;0.20;;;17.00;59.00;;;;;;4980663;28;20050;-14
2022/04/06 07:50:48;;;;;;;0.22;0.20;;;17.10;58.80;;;;;;4980352;28;20157;-14
2022/04/06 07:53:14;;;;;;;0.20;0.20;;;17.10;58.90;;;;;;4979794;28;20121;-14
2022/04/06 07:55:39;;;;;;;0.40;0.17;;;17.70;57.60;;;;;;4981151;28;20066;-15
2022/04/06 07:58:05;;;;;;;0.20;0.20;;;18.30;56.30;;;;;;4980472;28;20047;-14
2022/04/06 08:00:33;;;;;;;0.43;0.20;;;18.50;55.40;;;;;;4984659;28;20105;-15
2022/04/06 08:02:58;;;;;;;0.20;0.20;;;18.60;55.40;;;;;;4983105;28;20046;-15
2022/04/06 08:05:24;;;;;;;0.85;0.20;;;18.20;55.80;;;;;;4984949;28;20061;-14
2022/04/06 08:07:52;;;;;;;0.40;0.30;;;18.10;56.40;;;;;;4983352;28;20146;-15
2022/04/06 08:10:18;;;;;;;0.20;0.20;;;17.60;57.30;;;;;;4984646;28;20093;-14
2022/04/06 08:12:43;;;;;;;0.22;0.17;;;17.40;57.90;;;;;;4979537;28;20050;-14
2022/04/06 08:15:09;;;;;;;0.40;0.30;;;17.30;58.30;;;;;;4984734;28;20055;-15
2022/04/06 08:17:36;;;;;;;0.32;0.10;;;17.30;58.50;;;;;;4984593;28;20071;-16
2022/04/06 08:20:04;;;;;;;0.10;0.10;;;17.20;58.60;;;;;;4983126;28;20054;-14
2022/04/06 08:22:29;;;;;;;0.30;0.20;;;17.20;58.60;;;;;;4981914;28;20054;-16
2022/04/06 08:24:55;;;;;;;0.38;0.38;;;17.30;58.40;;;;;;4984346;28;20502;-14
2022/04/06 08:27:20;;;;;;;0.43;0.10;;;17.30;58.50;;;;;;4984374;28;20205;-14
2022/04/06 08:29:46;;;;;;;0.20;0.20;;;17.30;58.40;;;;;;4982941;28;20050;-15
2022/04/06 08:32:12;;;;;;;0.30;0.10;;;17.30;58.40;;;;;;4983617;28;20061;-16
2022/04/06 08:34:38;;;;;;;0.13;0.13;;;17.30;58.40;;;;;;4981254;28;20070;-15
2022/04/06 08:37:03;;;;;;;0.45;0.20;;;17.30;58.40;;;;;;4982726;28;20061;-15
2022/04/06 08:39:29;;;;;;;0.22;0.20;;;17.30;58.30;;;;;;4984430;28;20047;-14
2022/04/06 08:41:57;;;;;;;0.32;0.20;;;17.30;58.30;;;;;;4982879;28;20109;-15
2022/04/06 08:44:23;;;;;;;0.73;0.10;;;17.30;58.30;;;;;;4980930;28;20091;-15
2022/04/06 08:46:50;;;;;;;0.43;0.38;;;17.30;58.20;;;;;;4982854;28;20137;-16
2022/04/06 08:49:16;;;;;;;0.10;0.10;;;17.30;58.20;;;;;;4989385;28;20045;-14
2022/04/06 08:51:41;;;;;;;0.15;0.15;;;17.30;58.20;;;;;;4996907;28;20050;-14
2022/04/06 08:54:08;;;;;;;0.10;0.10;;;17.30;58.10;;;;;;4976806;28;20097;-14
2022/04/06 08:56:33;;;;;;;0.30;0.30;;;17.40;58.10;;;;;;4978024;28;20050;-14
2022/04/06 08:59:00;;;;;;;0.10;0.10;;;17.20;58.60;;;;;;4993297;28;20046;-14
2022/04/06 09:01:28;;;;;;;0.20;0.20;;;17.30;58.30;;;;;;4998051;28;20053;-14
2022/04/06 09:03:54;;;;;;;0.15;0.10;;;17.30;58.20;;;;;;4996987;28;20048;-15
2022/04/06 09:06:19;;;;;;;0.30;0.17;;;17.30;58.10;;;;;;4997222;28;20488;-14
2022/04/06 09:08:47;;;;;;;0.32;0.20;;;17.30;58.00;;;;;;4997812;28;20089;-16
2022/04/06 09:11:18;;;;;;;0.20;0.15;;;17.30;58.00;;;;;;4996669;28;20097;-15
2022/04/06 09:13:46;;;;;;;0.25;0.25;;;17.30;58.00;;;;;;4992462;28;20053;-15
2022/04/06 09:16:13;;;;;;;0.20;0.20;;;17.30;58.00;;;;;;4981774;28;20046;-14
2022/04/06 09:18:40;;;;;;;0.20;0.15;;;17.30;58.00;;;;;;4998224;28;20125;-15
2022/04/06 09:21:08;;;;;;;0.20;0.20;;;17.30;58.00;;;;;;4997149;28;20090;-17
2022/04/06 09:23:33;;;;;;;0.28;0.28;;;17.30;58.00;;;;;;4989249;28;20044;-15
2022/04/06 09:26:03;;;;;;;0.40;0.40;;;17.30;58.00;;;;;;4958701;28;20054;-15
2022/04/06 09:28:29;;;;;;;0.10;0.10;;;17.30;58.10;;;;;;4971401;28;20042;-14
2022/04/06 09:30:54;;;;;;;0.17;0.10;;;17.20;58.20;;;;;;4996705;28;20061;-14
2022/04/06 09:33:21;;;;;;;0.10;0.10;;;17.30;58.30;;;;;;4985983;28;20719;-20
2022/04/06 09:35:46;;;;;;;0.20;0.20;;;17.20;58.40;;;;;;4977931;28;20141;-16
2022/04/06 09:38:20;;;;;;;0.30;0.10;;;17.20;58.90;;;;;;4978893;28;20079;-13
2022/04/06 09:40:46;;;;;;;0.10;0.10;;;17.30;58.70;;;;;;4995046;28;20508;-13
2022/04/06 09:43:33;;;;;;;0.30;0.30;;;17.20;59.10;;;;;;4996462;28;20402;-14
2022/04/06 09:49:08;;;;;;;0.28;0.10;;;17.20;59.30;;;;;;4994967;28;20045;-14
2022/04/06 09:51:37;;;;;;;0.35;0.17;;;17.10;59.40;;;;;;4997655;28;20130;-13
2022/04/06 09:54:03;;;;;;;0.10;0.00;;;17.10;59.50;;;;;;4996807;28;20039;-14
2022/04/06 09:56:30;;;;;;;0.10;0.10;;;17.10;59.30;;;;;;4992740;28;20043;-14
2022/04/06 09:58:56;;;;;;;0.80;0.17;;;17.10;59.40;;;;;;4977499;28;20046;-14
2022/04/06 10:01:22;;;;;;;0.82;0.20;;;17.10;60.00;;;;;;4977904;28;20045;-15
2022/04/06 10:03:52;;;;;;;0.10;0.10;;;17.20;59.30;;;;;;4640820;28;9999963;-14
2022/04/06 10:06:18;;;;;;;0.10;0.10;;;17.20;59.20;;;;;;4991887;28;20039;-14
2022/04/06 10:08:44;;;;;;;0.10;0.10;;;17.20;59.10;;;;;;4991213;28;20092;-14
2022/04/06 10:11:11;;;;;;;0.15;0.10;;;17.30;59.10;;;;;;4975171;28;20416;-14
2022/04/06 10:13:38;;;;;;;0.40;0.25;;;17.20;59.00;;;;;;4992991;28;20052;-13
2022/04/06 10:16:04;;;;;;;0.10;0.10;;;17.30;59.00;;;;;;4994712;28;20427;-15
2022/04/06 10:18:31;;;;;;;0.10;0.10;;;17.20;59.00;;;;;;4993280;28;20057;-13
2022/04/06 10:21:23;;;;;;;0.32;0.10;;;17.20;59.10;;;;;;4994166;28;20050;-13
2022/04/06 10:24:12;;;;;;;0.10;0.10;;;17.20;59.10;;;;;;4991332;28;20042;-16
2022/04/06 10:26:47;;;;;;;0.20;0.10;;;17.20;59.10;;;;;;4989958;28;20500;-13
2022/04/06 10:29:13;;;;;;;0.10;0.10;;;17.20;59.10;;;;;;4993139;28;20054;-14
2022/04/06 10:31:39;;;;;;;0.10;0.10;;;17.20;59.20;;;;;;5006497;28;20047;-14
2022/04/06 10:34:25;;;;;;;0.60;0.10;;;17.20;59.20;;;;;;4988435;28;20046;-14
2022/04/06 10:37:11;;;;;;;0.10;0.10;;;17.20;59.20;;;;;;4987283;28;20042;-13
2022/04/06 10:39:53;;;;;;;0.00;0.00;;;17.10;59.00;;;;;;4995916;28;20038;-13
2022/04/06 10:42:31;;;;;;;0.20;0.10;;;17.20;59.10;;;;;;4988887;28;20051;-14
2022/04/06 10:44:57;;;;;;;0.10;0.10;;;17.10;59.00;;;;;;4993022;28;20058;-14
2022/04/06 10:47:23;;;;;;;0.35;0.10;;;17.10;59.10;;;;;;4996061;28;20038;-14
2022/04/06 10:50:08;;;;;;;0.20;0.10;;;17.10;59.10;;;;;;4980198;28;20042;-14
2022/04/06 10:52:33;;;;;;;0.22;0.20;;;17.10;59.10;;;;;;4957082;28;20051;-13
2022/04/06 10:55:08;;;;;;;0.10;0.10;;;17.10;59.10;;;;;;4961774;28;20087;-14
2022/04/06 10:58:00;;;;;;;0.10;0.10;;;17.10;59.00;;;;;;4992889;28;20106;-13
2022/04/06 11:00:26;;;;;;;0.30;0.20;;;17.20;58.90;;;;;;4986616;28;20054;-14
2022/04/06 11:02:52;;;;;;;0.10;0.03;;;17.10;58.80;;;;;;4992148;28;20046;-15
2022/04/06 11:05:45;;;;;;;0.40;0.20;;;17.20;58.80;;;;;;4976067;28;20050;-14
2022/04/06 11:11:37;;;;;;;0.10;0.10;;;17.30;58.60;;;;;;4987240;28;20061;-14
2022/04/06 11:14:03;;;;;;;1.85;0.10;;;17.30;58.50;;;;;;4988724;28;20830;-13
2022/04/06 11:16:45;;;;;;;0.10;0.08;;;17.30;58.50;;;;;;4995764;28;20523;-14
2022/04/06 11:19:11;;;;;;;0.47;0.10;;;17.30;58.40;;;;;;4989493;28;22408;-13
2022/04/06 11:21:56;;;;;;;0.20;0.10;;;17.30;58.40;;;;;;4979668;28;20043;-14
2022/04/06 11:24:27;;;;;;;0.10;0.10;;;17.30;58.30;;;;;;4976088;28;20074;-13
2022/04/06 11:26:53;;;;;;;0.10;0.10;;;17.40;58.30;;;;;;4975465;28;20407;-15
2022/04/06 11:29:19;;;;;;;0.10;0.10;;;17.40;58.20;;;;;;4995539;28;20069;-14
2022/04/06 11:32:00;;;;;;;1.15;0.10;;;17.30;58.30;;;;;;4995017;28;20038;-13
2022/04/06 11:34:36;;;;;;;0.25;0.10;;;17.30;58.30;;;;;;4982242;28;20058;-15
2022/04/06 11:37:03;;;;;;;0.00;0.00;;;17.30;58.30;;;;;;4992254;28;20054;-13
2022/04/06 11:39:30;;;;;;;0.00;0.00;;;17.30;58.40;;;;;;4987920;28;20078;-13
2022/04/06 11:41:57;;;;;;;0.10;0.10;;;17.30;58.40;;;;;;4978049;28;20047;-13
2022/04/06 11:44:24;;;;;;;0.22;0.10;;;17.30;58.50;;;;;;4994367;28;20134;-14
2022/04/06 11:46:51;;;;;;;0.05;0.05;;;17.20;58.50;;;;;;4988325;28;20046;-13
2022/04/06 11:49:24;;;;;;;0.22;0.10;;;17.20;58.50;;;;;;4993310;28;20070;-13
2022/04/06 11:51:54;;;;;;;0.10;0.05;;;17.20;58.50;;;;;;4994001;28;20411;-13
2022/04/06 11:54:20;;;;;;;0.00;0.00;;;17.20;58.60;;;;;;4994735;28;20423;-14
2022/04/06 11:56:53;;;;;;;0.10;0.10;;;17.30;58.40;;;;;;4994966;28;20073;-14
2022/04/06 11:59:19;;;;;;;0.10;0.10;;;17.20;58.40;;;;;;4994409;28;20253;-14
2022/04/06 12:01:48;;;;;;;0.05;0.03;;;17.20;58.50;;;;;;4994908;28;20101;-14
2022/04/06 12:04:23;;;;;;;0.10;0.10;;;17.20;58.60;;;;;;4991948;28;20050;-13
2022/04/06 12:06:52;;;;;;;0.00;0.00;;;17.20;58.50;;;;;;4995010;28;20042;-15
2022/04/06 12:09:18;;;;;;;0.20;0.10;;;17.30;58.40;;;;;;4993154;28;20065;-14
2022/04/06 12:11:48;;;;;;;0.25;0.10;;;17.30;58.70;;;;;;4982315;28;20042;-14
2022/04/06 12:14:13;;;;;;;0.10;0.10;;;17.20;58.60;;;;;;4989242;28;20050;-13
2022/04/06 12:16:39;;;;;;;0.30;0.30;;;17.20;58.50;;;;;;4989844;28;20050;-14
2022/04/06 12:19:11;;;;;;;0.10;0.10;;;17.30;58.40;;;;;;4973977;28;20047;-14
2022/04/06 12:21:40;;;;;;;0.08;0.08;;;17.30;59.20;;;;;;4975713;28;20046;-13
2022/04/06 12:24:05;;;;;;;0.10;0.10;;;17.20;58.70;;;;;;4990094;28;20054;-12
2022/04/06 12:26:43;;;;;;;0.10;0.10;;;17.30;59.20;;;;;;4990176;28;20106;-13
2022/04/06 12:29:14;;;;;;;0.10;0.00;;;17.30;58.60;;;;;;4989516;28;20062;-13
2022/04/06 12:31:41;;;;;;;2.90;0.10;;;17.20;58.60;;;;;;4978499;28;20057;-13
2022/04/06 12:34:08;;;;;;;0.25;0.10;;;17.30;58.70;;;;;;4992951;28;20054;-13
2022/04/06 12:36:33;;;;;;;0.85;0.38;;;17.30;58.70;;;;;;4994131;28;20039;-13
2022/04/06 12:39:04;;;;;;;1.08;0.10;;;17.30;58.70;;;;;;4984647;28;20074;-13
2022/04/06 12:41:31;;;;;;;0.10;0.10;;;17.20;59.00;;;;;;4994515;28;20042;-14
2022/04/06 12:43:58;;;;;;;0.10;0.05;;;17.20;59.00;;;;;;4986611;28;20500;-16
2022/04/06 12:46:43;;;;;;;0.10;0.10;;;17.30;58.90;;;;;;4977345;28;20047;-14
2022/04/06 12:49:24;;;;;;;0.20;0.10;;;17.30;59.00;;;;;;4647618;28;10000524;-13
2022/04/06 12:52:19;;;;;;;0.30;0.10;;;17.30;58.90;;;;;;4994402;28;20142;-13
2022/04/06 12:54:49;;;;;;;0.30;0.10;;;17.20;59.10;;;;;;4988653;28;20052;-15
2022/04/06 12:57:27;;;;;;;0.00;0.00;;;17.20;59.30;;;;;;4998070;28;20053;-14
2022/04/06 12:59:54;;;;;;;0.05;0.00;;;17.10;59.30;;;;;;4992901;28;20596;-15